Time;durP1;ratioP1;P1;durP2;ratioP2;P2;SDS_P1;SDS_P2;PMS_P1;PMS_P2;Temp;Humidity;BMP_temperature;BMP_pressure;BME280_temperature;BME280_humidity;BME280_pressure;Samples;Min_cycle;Max_cycle;Signal;HPM_P1;HPM_P2
2021/05/08 00:00:17;;;;;;;4.23;3.60;;;3.00;95.80;;;;;;5020676;28;20574;-61
2021/05/08 00:02:43;;;;;;;3.73;3.20;;;3.00;96.00;;;;;;5028190;28;20501;-62
2021/05/08 00:05:10;;;;;;;5.40;3.80;;;3.00;95.80;;;;;;5029489;28;20462;-62
2021/05/08 00:07:36;;;;;;;6.70;3.60;;;2.90;95.80;;;;;;5028674;28;20601;-60
2021/05/08 00:10:09;;;;;;;4.50;3.60;;;2.90;95.90;;;;;;5027383;28;20509;-64
2021/05/08 00:12:34;;;;;;;3.77;3.13;;;2.90;96.10;;;;;;5031635;28;20359;-62
2021/05/08 00:15:00;;;;;;;8.03;3.43;;;2.90;96.20;;;;;;5026402;28;20433;-63
2021/05/08 00:17:26;;;;;;;3.77;3.07;;;2.90;96.30;;;;;;5041462;28;20437;-64
2021/05/08 00:19:51;;;;;;;4.60;3.27;;;2.90;96.20;;;;;;5036693;28;20683;-62
2021/05/08 00:22:17;;;;;;;9.70;2.97;;;2.90;96.30;;;;;;5041093;28;20218;-61
2021/05/08 00:24:43;;;;;;;5.30;3.37;;;2.90;96.10;;;;;;5043393;28;20188;-61
2021/05/08 00:27:08;;;;;;;4.60;3.20;;;2.90;96.10;;;;;;5029278;28;20212;-65
2021/05/08 00:29:34;;;;;;;3.87;3.33;;;2.90;96.10;;;;;;5028908;28;20171;-62
2021/05/08 00:32:00;;;;;;;4.30;3.87;;;2.90;96.00;;;;;;5025146;28;20245;-64
2021/05/08 00:34:25;;;;;;;6.63;3.70;;;2.90;96.10;;;;;;5020561;28;20694;-62
2021/05/08 00:36:51;;;;;;;4.63;3.60;;;2.90;96.20;;;;;;5023869;28;20202;-63
2021/05/08 00:39:16;;;;;;;5.47;3.90;;;2.80;96.30;;;;;;5038518;28;20213;-62
2021/05/08 00:41:42;;;;;;;8.80;4.50;;;2.80;96.40;;;;;;5040328;28;20255;-62
2021/05/08 00:44:08;;;;;;;5.27;3.57;;;2.80;96.50;;;;;;5023734;28;20637;-62
2021/05/08 00:46:33;;;;;;;4.30;3.90;;;2.80;96.60;;;;;;5034319;28;20725;-61
2021/05/08 00:48:59;;;;;;;4.90;3.20;;;2.80;96.40;;;;;;5036565;28;20183;-62
2021/05/08 00:51:26;;;;;;;6.13;3.87;;;2.70;96.50;;;;;;5032401;28;20566;-62
2021/05/08 00:53:52;;;;;;;6.70;3.67;;;2.80;96.50;;;;;;5029913;28;20835;-63
2021/05/08 00:56:18;;;;;;;3.40;3.10;;;2.70;96.60;;;;;;5064092;28;20524;-66
2021/05/08 00:58:43;;;;;;;4.50;3.57;;;2.80;96.50;;;;;;5042880;28;20442;-64
2021/05/08 01:01:09;;;;;;;4.40;3.70;;;2.80;96.60;;;;;;5032856;28;20426;-62
2021/05/08 01:03:35;;;;;;;4.13;3.20;;;2.70;96.50;;;;;;5044336;28;20210;-63
2021/05/08 01:06:02;;;;;;;4.17;3.40;;;2.70;96.60;;;;;;5055460;28;20220;-62
2021/05/08 01:08:27;;;;;;;4.27;3.40;;;2.70;96.70;;;;;;5022775;28;20552;-62
2021/05/08 01:10:53;;;;;;;3.00;2.77;;;2.70;96.70;;;;;;5047903;28;20950;-62
2021/05/08 01:13:19;;;;;;;3.57;2.80;;;2.70;96.80;;;;;;5027970;28;20190;-63
2021/05/08 01:15:44;;;;;;;3.67;2.80;;;2.60;96.70;;;;;;5029442;28;20199;-63
2021/05/08 01:18:11;;;;;;;3.20;2.80;;;2.60;96.90;;;;;;5014661;28;20275;-63
2021/05/08 01:20:36;;;;;;;3.50;2.80;;;2.60;97.10;;;;;;5037143;28;20524;-62
2021/05/08 01:23:02;;;;;;;3.87;3.03;;;2.60;97.00;;;;;;5037167;28;20718;-62
2021/05/08 01:25:28;;;;;;;3.23;2.93;;;2.60;97.10;;;;;;5033048;28;20844;-60
2021/05/08 01:27:59;;;;;;;4.37;3.00;;;2.60;96.90;;;;;;5028735;28;20421;-62
2021/05/08 01:30:27;;;;;;;4.23;3.30;;;2.60;97.00;;;;;;5029680;28;20168;-62
2021/05/08 01:32:53;;;;;;;3.10;2.70;;;2.60;97.00;;;;;;5027208;28;20517;-64
2021/05/08 01:35:19;;;;;;;3.47;2.90;;;2.50;97.10;;;;;;5025653;28;20531;-62
2021/05/08 01:37:46;;;;;;;5.33;3.00;;;2.50;97.20;;;;;;5023152;28;20354;-63
2021/05/08 01:40:13;;;;;;;5.30;3.57;;;2.50;97.20;;;;;;5029321;28;20178;-64
2021/05/08 01:42:40;;;;;;;3.73;2.70;;;2.60;97.30;;;;;;5030915;28;20457;-64
2021/05/08 01:45:18;;;;;;;6.13;3.13;;;2.60;97.30;;;;;;5024678;28;20450;-62
2021/05/08 01:47:44;;;;;;;4.93;2.90;;;2.50;97.20;;;;;;5022584;28;20434;-64
2021/05/08 01:50:15;;;;;;;3.77;2.83;;;2.50;97.40;;;;;;5017488;28;20845;-62
2021/05/08 01:52:42;;;;;;;3.17;2.60;;;2.50;97.50;;;;;;5026233;28;20475;-62
2021/05/08 01:55:11;;;;;;;5.43;2.97;;;2.50;97.50;;;;;;5045660;28;20526;-61
2021/05/08 01:57:54;;;;;;;5.63;3.50;;;2.50;97.60;;;;;;5042444;28;21079;-69
2021/05/08 02:00:41;;;;;;;4.57;3.30;;;2.50;97.70;;;;;;5024615;28;20471;-67
2021/05/08 02:03:07;;;;;;;4.97;3.47;;;2.50;97.60;;;;;;5035646;28;20461;-61
2021/05/08 02:05:35;;;;;;;8.70;3.50;;;2.50;97.60;;;;;;5029990;28;20469;-63
2021/05/08 02:08:03;;;;;;;3.50;2.93;;;2.50;97.90;;;;;;5026770;28;20463;-63
2021/05/08 02:10:30;;;;;;;5.80;3.43;;;2.40;97.50;;;;;;5033493;28;20428;-62
2021/05/08 02:13:00;;;;;;;4.60;2.97;;;2.40;97.50;;;;;;5029116;28;20415;-63
2021/05/08 02:15:26;;;;;;;8.83;3.47;;;2.40;97.50;;;;;;5030481;28;20464;-67
2021/05/08 02:17:52;;;;;;;3.40;3.00;;;2.40;97.60;;;;;;5052661;28;20510;-65
2021/05/08 02:20:22;;;;;;;3.63;3.00;;;2.40;97.60;;;;;;5038157;28;20515;-62
2021/05/08 02:22:48;;;;;;;4.10;3.40;;;2.40;97.70;;;;;;5041045;28;20202;-64
2021/05/08 02:25:17;;;;;;;5.10;3.10;;;2.30;97.80;;;;;;5038478;28;20942;-63
2021/05/08 02:27:45;;;;;;;6.53;5.10;;;2.30;98.00;;;;;;5028047;28;20422;-62
2021/05/08 02:30:14;;;;;;;4.53;3.50;;;2.30;98.20;;;;;;5022691;28;20439;-65
2021/05/08 02:32:41;;;;;;;8.73;3.43;;;2.30;97.90;;;;;;5018436;28;20580;-60
2021/05/08 02:35:09;;;;;;;6.83;3.80;;;2.30;97.90;;;;;;5031512;28;20502;-65
2021/05/08 02:37:35;;;;;;;5.07;3.80;;;2.30;97.90;;;;;;5028147;28;20443;-63
2021/05/08 02:40:02;;;;;;;7.90;5.07;;;2.30;97.90;;;;;;5017511;28;20753;-62
2021/05/08 02:42:27;;;;;;;3.93;3.23;;;2.30;97.90;;;;;;5018880;28;20547;-62
2021/05/08 02:44:53;;;;;;;4.80;3.20;;;2.30;97.90;;;;;;5021970;28;20525;-61
2021/05/08 02:47:19;;;;;;;4.30;3.40;;;2.20;97.80;;;;;;5023870;28;20172;-64
2021/05/08 02:49:50;;;;;;;5.80;3.10;;;2.20;97.90;;;;;;5027542;28;20528;-62
2021/05/08 02:52:17;;;;;;;6.80;4.00;;;2.20;98.00;;;;;;5033718;28;20844;-61
2021/05/08 02:54:43;;;;;;;5.20;3.47;;;2.20;97.90;;;;;;5021756;28;20532;-61
2021/05/08 02:57:09;;;;;;;5.97;3.67;;;2.20;97.90;;;;;;5012325;28;20446;-62
2021/05/08 02:59:35;;;;;;;5.63;3.57;;;2.10;97.80;;;;;;5020546;28;20444;-67
2021/05/08 03:02:02;;;;;;;4.50;3.87;;;2.10;97.90;;;;;;5026573;28;20188;-62
2021/05/08 03:04:28;;;;;;;4.27;3.00;;;2.00;98.10;;;;;;5034164;28;20431;-62
2021/05/08 03:06:54;;;;;;;3.97;3.03;;;2.00;98.20;;;;;;5036141;28;20436;-62
2021/05/08 03:09:20;;;;;;;5.37;3.37;;;2.00;98.30;;;;;;5036286;28;20890;-62
2021/05/08 03:11:46;;;;;;;3.70;3.00;;;2.00;98.40;;;;;;5022385;28;20436;-62
2021/05/08 03:14:13;;;;;;;3.70;3.10;;;1.90;98.40;;;;;;5021958;28;20247;-63
2021/05/08 03:16:40;;;;;;;3.30;3.00;;;1.90;98.40;;;;;;5026486;28;20610;-62
2021/05/08 03:19:06;;;;;;;4.37;3.60;;;1.90;98.40;;;;;;5030539;28;20575;-62
2021/05/08 03:21:32;;;;;;;3.30;3.00;;;1.80;98.40;;;;;;5030250;28;20877;-64
2021/05/08 03:23:58;;;;;;;3.73;3.17;;;1.80;98.50;;;;;;5020866;28;20267;-61
2021/05/08 03:26:24;;;;;;;5.80;2.90;;;1.80;98.70;;;;;;5027542;28;20451;-62
2021/05/08 03:28:50;;;;;;;7.23;3.40;;;1.80;98.70;;;;;;5025923;28;20431;-63
2021/05/08 03:31:16;;;;;;;6.10;3.57;;;1.70;98.60;;;;;;5009511;28;20444;-64
2021/05/08 03:33:41;;;;;;;4.23;3.47;;;1.70;98.80;;;;;;5025042;28;20565;-60
2021/05/08 03:36:07;;;;;;;6.00;3.13;;;1.70;98.80;;;;;;5029622;28;20358;-62
2021/05/08 03:38:33;;;;;;;5.33;3.07;;;1.70;98.80;;;;;;5032168;28;20192;-60
2021/05/08 03:40:59;;;;;;;3.30;3.00;;;1.70;98.90;;;;;;5012130;28;20201;-62
2021/05/08 03:43:24;;;;;;;4.80;3.20;;;1.60;98.90;;;;;;5028015;28;20255;-63
2021/05/08 03:45:50;;;;;;;4.13;2.87;;;1.60;99.00;;;;;;5020243;28;20356;-63
2021/05/08 03:48:16;;;;;;;6.63;3.57;;;1.60;99.20;;;;;;5020096;28;20189;-63
2021/05/08 03:50:41;;;;;;;6.37;3.67;;;1.60;99.30;;;;;;5023590;28;20178;-63
2021/05/08 03:53:07;;;;;;;9.53;3.33;;;1.60;99.30;;;;;;5027372;28;20439;-61
2021/05/08 03:55:34;;;;;;;4.37;3.17;;;1.60;99.20;;;;;;5026011;23;20234;-60
2021/05/08 03:58:00;;;;;;;3.30;3.00;;;1.60;99.20;;;;;;4989489;28;20163;-57
2021/05/08 04:00:26;;;;;;;5.50;3.30;;;1.60;99.10;;;;;;4986728;28;20437;-59
2021/05/08 04:02:52;;;;;;;3.73;3.10;;;1.60;99.20;;;;;;4983027;28;20460;-59
2021/05/08 04:05:18;;;;;;;4.10;3.20;;;1.50;99.10;;;;;;4996567;28;20515;-60
2021/05/08 04:07:44;;;;;;;4.93;3.50;;;1.50;99.10;;;;;;4991838;28;20184;-59
2021/05/08 04:10:10;;;;;;;10.07;4.43;;;1.50;99.20;;;;;;4981230;28;20427;-60
2021/05/08 04:12:36;;;;;;;7.93;4.63;;;1.50;99.30;;;;;;4985867;28;20184;-58
2021/05/08 04:15:02;;;;;;;7.00;4.73;;;1.60;99.20;;;;;;4992841;28;20827;-59
2021/05/08 04:17:28;;;;;;;3.93;3.20;;;1.50;99.10;;;;;;4975957;28;20434;-59
2021/05/08 04:19:53;;;;;;;6.33;4.13;;;1.50;99.10;;;;;;4987110;28;20447;-60
2021/05/08 04:22:19;;;;;;;5.03;3.53;;;1.50;99.20;;;;;;4990785;28;20203;-59
2021/05/08 04:24:44;;;;;;;5.40;3.70;;;1.50;99.30;;;;;;4980041;28;20185;-59
2021/05/08 04:27:10;;;;;;;4.40;3.40;;;1.50;99.30;;;;;;4984539;28;20235;-59
2021/05/08 04:29:36;;;;;;;4.03;3.63;;;1.50;99.40;;;;;;4987678;28;20705;-58
2021/05/08 04:32:02;;;;;;;6.67;3.90;;;1.50;99.50;;;;;;4977924;28;21246;-59
2021/05/08 04:34:28;;;;;;;4.37;3.53;;;1.50;99.50;;;;;;4986399;28;20823;-59
2021/05/08 04:36:53;;;;;;;7.90;3.50;;;1.60;99.50;;;;;;4984723;28;20527;-58
2021/05/08 04:39:19;;;;;;;7.63;3.77;;;1.60;99.50;;;;;;4989671;28;20686;-59
2021/05/08 04:41:44;;;;;;;6.17;3.87;;;1.60;99.50;;;;;;4990123;28;20247;-59
2021/05/08 04:44:10;;;;;;;5.70;3.70;;;1.70;99.60;;;;;;4990209;28;20298;-59
2021/05/08 04:46:36;;;;;;;5.37;3.60;;;1.70;99.70;;;;;;4991128;28;20194;-59
2021/05/08 04:49:03;;;;;;;5.43;3.60;;;1.70;99.60;;;;;;4988230;28;20183;-58
2021/05/08 04:51:28;;;;;;;5.90;4.00;;;1.80;99.50;;;;;;4988232;28;20485;-61
2021/05/08 04:53:54;;;;;;;5.20;3.70;;;1.80;99.60;;;;;;4986359;28;20433;-58
2021/05/08 04:56:23;;;;;;;9.20;3.83;;;1.90;99.60;;;;;;4972323;28;20213;-59
2021/05/08 04:58:49;;;;;;;6.60;3.50;;;2.00;99.30;;;;;;4989560;28;20182;-59
2021/05/08 05:01:15;;;;;;;9.07;3.13;;;2.10;99.10;;;;;;4986430;28;20430;-58
2021/05/08 05:03:40;;;;;;;6.67;3.83;;;2.10;98.90;;;;;;4984660;28;20214;-59
2021/05/08 05:06:06;;;;;;;6.77;3.43;;;2.20;98.50;;;;;;4984491;28;20211;-59
2021/05/08 05:08:31;;;;;;;3.43;3.13;;;2.20;98.30;;;;;;4985021;28;20314;-60
2021/05/08 05:10:57;;;;;;;3.97;3.37;;;2.30;98.10;;;;;;4981840;28;20176;-60
2021/05/08 05:13:24;;;;;;;4.90;3.10;;;2.30;98.10;;;;;;4976684;28;20187;-59
2021/05/08 05:15:50;;;;;;;4.77;3.03;;;2.40;98.10;;;;;;4981049;28;20459;-59
2021/05/08 05:18:16;;;;;;;6.20;3.67;;;2.40;98.30;;;;;;4979083;28;20436;-60
2021/05/08 05:20:43;;;;;;;5.53;3.60;;;2.40;98.10;;;;;;4981437;28;20464;-59
2021/05/08 05:23:09;;;;;;;4.10;3.23;;;2.50;98.00;;;;;;4981397;28;20471;-59
2021/05/08 05:25:35;;;;;;;5.80;4.33;;;2.60;97.90;;;;;;4981548;28;20572;-60
2021/05/08 05:28:01;;;;;;;5.93;3.70;;;2.80;97.60;;;;;;4982240;28;20909;-58
2021/05/08 05:30:28;;;;;;;5.27;3.57;;;2.90;97.10;;;;;;4981778;28;21003;-59
2021/05/08 05:32:54;;;;;;;6.70;3.77;;;3.00;96.90;;;;;;4986989;28;21016;-59
2021/05/08 05:35:20;;;;;;;7.17;4.07;;;3.20;96.30;;;;;;4983590;28;20445;-59
2021/05/08 05:37:46;;;;;;;4.40;3.40;;;3.20;96.20;;;;;;4986708;28;20180;-59
2021/05/08 05:40:12;;;;;;;5.83;3.43;;;3.40;96.10;;;;;;4983978;28;20426;-61
2021/05/08 05:42:39;;;;;;;5.10;3.90;;;3.40;95.70;;;;;;4985522;28;20997;-59
2021/05/08 05:45:06;;;;;;;6.50;4.40;;;3.50;95.80;;;;;;4986448;28;20459;-60
2021/05/08 05:47:32;;;;;;;4.43;3.77;;;3.60;95.80;;;;;;4989236;28;20499;-60
2021/05/08 05:49:58;;;;;;;10.00;4.10;;;3.70;95.90;;;;;;4977552;28;20429;-59
2021/05/08 05:52:24;;;;;;;5.77;4.57;;;3.70;95.50;;;;;;4983594;28;20450;-60
2021/05/08 05:54:51;;;;;;;11.43;6.07;;;3.70;95.20;;;;;;4976042;28;20260;-60
2021/05/08 05:57:17;;;;;;;6.10;4.33;;;3.80;95.30;;;;;;4986867;28;20183;-60
2021/05/08 05:59:44;;;;;;;10.30;4.90;;;3.80;95.40;;;;;;4988572;28;20440;-60
2021/05/08 06:02:11;;;;;;;5.77;3.80;;;4.00;95.50;;;;;;4981939;28;20482;-59
2021/05/08 06:04:37;;;;;;;4.83;3.47;;;4.10;95.30;;;;;;4986845;28;20424;-59
2021/05/08 06:07:04;;;;;;;7.43;3.90;;;4.30;94.50;;;;;;4984280;28;20436;-59
2021/05/08 06:09:29;;;;;;;4.47;3.80;;;4.40;94.30;;;;;;4982707;28;20826;-59
2021/05/08 06:11:56;;;;;;;8.00;4.50;;;4.50;94.00;;;;;;4985421;28;20441;-59
2021/05/08 06:14:24;;;;;;;6.23;3.73;;;4.50;93.90;;;;;;4987341;28;20268;-60
2021/05/08 06:16:50;;;;;;;7.23;3.70;;;4.70;93.80;;;;;;4969767;28;20451;-59
2021/05/08 06:19:15;;;;;;;5.90;3.73;;;4.80;93.90;;;;;;4984987;28;20502;-59
2021/05/08 06:21:42;;;;;;;7.43;4.50;;;5.00;94.00;;;;;;4980595;28;20839;-60
2021/05/08 06:24:09;;;;;;;9.67;4.93;;;5.20;94.00;;;;;;4985490;28;20208;-59
2021/05/08 06:26:35;;;;;;;8.57;4.80;;;5.30;93.40;;;;;;4994100;28;20478;-59
2021/05/08 06:29:02;;;;;;;7.37;4.47;;;5.40;92.60;;;;;;4984076;28;20438;-59
2021/05/08 06:31:28;;;;;;;9.47;4.70;;;5.50;92.40;;;;;;4984709;28;20440;-59
2021/05/08 06:33:54;;;;;;;6.07;4.57;;;5.60;92.30;;;;;;4996098;28;20491;-59
2021/05/08 06:36:19;;;;;;;4.83;4.27;;;5.70;91.60;;;;;;4979525;28;20452;-60
2021/05/08 06:38:45;;;;;;;8.00;4.40;;;5.70;91.30;;;;;;4989540;28;20515;-60
2021/05/08 06:41:11;;;;;;;7.50;5.03;;;5.60;91.50;;;;;;4988337;28;20791;-60
2021/05/08 06:43:36;;;;;;;7.27;5.00;;;5.60;92.10;;;;;;4987983;28;20225;-59
2021/05/08 06:46:02;;;;;;;6.27;4.17;;;5.60;92.60;;;;;;4978785;28;20209;-59
2021/05/08 06:48:28;;;;;;;4.40;3.73;;;5.60;92.80;;;;;;4984377;28;20179;-61
2021/05/08 06:50:53;;;;;;;8.03;3.97;;;5.70;93.40;;;;;;4982896;28;20236;-61
2021/05/08 06:53:19;;;;;;;6.10;3.77;;;5.80;92.80;;;;;;4981470;28;20212;-59
2021/05/08 06:55:45;;;;;;;4.90;3.60;;;5.80;92.50;;;;;;4981750;28;20221;-60
2021/05/08 06:58:10;;;;;;;9.17;3.20;;;5.90;92.30;;;;;;4983728;28;20642;-60
2021/05/08 07:00:36;;;;;;;3.90;3.20;;;6.10;91.80;;;;;;4974372;28;20666;-60
2021/05/08 07:03:02;;;;;;;3.47;2.83;;;6.30;91.40;;;;;;4972789;28;20196;-60
2021/05/08 07:05:29;;;;;;;4.87;3.57;;;6.50;90.90;;;;;;4976555;28;20197;-60
2021/05/08 07:08:06;;;;;;;3.53;3.20;;;6.80;90.40;;;;;;4983886;28;20708;-60
2021/05/08 07:10:32;;;;;;;5.13;3.90;;;7.00;88.50;;;;;;4983688;28;20543;-61
2021/05/08 07:12:58;;;;;;;5.93;4.13;;;7.10;88.50;;;;;;4984389;28;20519;-59
2021/05/08 07:15:24;;;;;;;8.77;4.73;;;7.30;88.20;;;;;;4982851;28;20769;-60
2021/05/08 07:18:19;;;;;;;4.40;3.53;;;7.50;88.40;;;;;;4976425;28;20189;-55
2021/05/08 07:20:44;;;;;;;5.87;4.00;;;7.80;89.30;;;;;;4973895;28;20256;-60
2021/05/08 07:23:10;;;;;;;5.33;4.03;;;7.90;88.40;;;;;;4982865;28;20542;-59
2021/05/08 07:25:37;;;;;;;5.70;3.60;;;8.10;86.20;;;;;;4985192;28;20204;-60
2021/05/08 07:28:11;;;;;;;6.20;4.40;;;8.30;86.70;;;;;;4987335;28;20239;-60
2021/05/08 07:30:38;;;;;;;4.83;4.13;;;8.50;83.70;;;;;;4980130;28;23025;-59
2021/05/08 07:33:04;;;;;;;4.10;3.63;;;8.60;82.80;;;;;;4980547;28;20435;-60
2021/05/08 07:35:29;;;;;;;8.30;4.00;;;8.80;84.10;;;;;;4980855;28;21287;-61
2021/05/08 07:37:55;;;;;;;5.30;3.90;;;9.00;84.40;;;;;;4981819;28;20193;-60
2021/05/08 07:40:22;;;;;;;5.80;4.20;;;9.10;79.50;;;;;;4987011;28;20232;-59
2021/05/08 07:42:48;;;;;;;6.20;4.43;;;9.20;74.90;;;;;;4988539;28;20456;-59
2021/05/08 07:45:14;;;;;;;6.17;4.57;;;9.20;77.10;;;;;;4980425;28;20472;-59
2021/05/08 07:47:40;;;;;;;8.10;4.40;;;9.30;79.50;;;;;;4979880;28;20177;-60
2021/05/08 07:50:07;;;;;;;6.03;4.47;;;9.40;77.60;;;;;;4978295;28;20451;-59
2021/05/08 07:52:33;;;;;;;10.37;4.67;;;9.60;74.80;;;;;;4982350;28;20844;-60
2021/05/08 07:54:59;;;;;;;6.20;4.40;;;9.70;76.30;;;;;;4978188;28;20452;-60
2021/05/08 07:57:24;;;;;;;7.40;3.83;;;9.90;76.90;;;;;;4982783;28;20240;-60
2021/05/08 07:59:50;;;;;;;6.13;4.13;;;10.10;78.60;;;;;;4974680;28;20193;-60
2021/05/08 08:02:15;;;;;;;6.23;4.07;;;10.30;82.70;;;;;;4978512;28;20182;-60
2021/05/08 08:04:41;;;;;;;6.33;4.43;;;10.60;81.80;;;;;;4980553;28;20176;-60
2021/05/08 08:07:07;;;;;;;5.60;4.23;;;10.90;76.90;;;;;;4986629;28;20177;-62
2021/05/08 08:09:32;;;;;;;10.20;5.40;;;11.10;71.80;;;;;;4985596;28;20173;-59
2021/05/08 08:11:59;;;;;;;5.20;3.60;;;11.30;68.90;;;;;;4992384;28;20177;-59
2021/05/08 08:14:24;;;;;;;2.50;2.30;;;11.40;59.40;;;;;;4979238;28;21948;-60
2021/05/08 08:16:50;;;;;;;5.10;2.70;;;11.30;56.00;;;;;;4973589;28;20839;-59
2021/05/08 08:19:15;;;;;;;4.33;2.90;;;11.30;55.80;;;;;;4985854;28;20191;-60
2021/05/08 08:21:41;;;;;;;2.90;2.60;;;11.40;55.60;;;;;;4983373;28;20710;-61
2021/05/08 08:24:07;;;;;;;5.60;2.90;;;11.40;53.60;;;;;;4986000;28;20713;-61
2021/05/08 08:26:35;;;;;;;3.00;2.70;;;11.40;53.40;;;;;;5002434;28;20189;-61
2021/05/08 08:29:01;;;;;;;3.97;2.67;;;11.40;52.60;;;;;;5007181;28;20435;-61
2021/05/08 08:31:28;;;;;;;4.93;2.63;;;11.40;53.90;;;;;;4998204;28;20458;-62
2021/05/08 08:33:53;;;;;;;5.13;2.00;;;11.50;54.90;;;;;;4998348;28;20554;-60
2021/05/08 08:36:19;;;;;;;4.00;2.70;;;11.50;55.00;;;;;;4996435;28;20487;-61
2021/05/08 08:38:45;;;;;;;8.93;2.53;;;11.60;54.30;;;;;;5002431;28;20165;-61
2021/05/08 08:41:11;;;;;;;2.97;2.67;;;11.70;53.00;;;;;;4996300;28;20573;-60
2021/05/08 08:43:38;;;;;;;3.87;2.23;;;11.70;53.70;;;;;;5006779;28;20249;-61
2021/05/08 08:46:05;;;;;;;2.67;2.30;;;11.90;54.00;;;;;;5000814;28;20487;-63
2021/05/08 08:48:31;;;;;;;2.30;2.10;;;11.90;53.50;;;;;;5002844;28;20451;-62
2021/05/08 08:50:57;;;;;;;5.63;2.20;;;12.00;53.20;;;;;;4990651;28;20988;-60
2021/05/08 08:53:23;;;;;;;3.10;2.40;;;12.10;53.40;;;;;;4989160;28;20181;-60
2021/05/08 08:55:53;;;;;;;2.17;1.97;;;12.20;53.30;;;;;;4989517;28;20471;-61
2021/05/08 08:58:25;;;;;;;4.20;2.37;;;12.30;53.00;;;;;;4993915;28;20454;-61
2021/05/08 09:00:54;;;;;;;3.27;2.30;;;12.40;53.60;;;;;;4993714;28;20446;-61
2021/05/08 09:03:19;;;;;;;2.37;1.90;;;12.60;53.30;;;;;;4992113;28;20460;-59
2021/05/08 09:05:46;;;;;;;6.00;2.47;;;12.70;51.70;;;;;;4998669;28;20457;-60
2021/05/08 09:08:12;;;;;;;3.23;2.10;;;12.70;51.50;;;;;;4989141;28;20271;-62
2021/05/08 09:10:38;;;;;;;2.40;2.20;;;12.70;51.30;;;;;;4999009;28;20479;-59
2021/05/08 09:13:05;;;;;;;2.60;2.20;;;12.80;52.10;;;;;;4985307;28;20440;-57
2021/05/08 09:15:34;;;;;;;3.83;2.20;;;12.90;52.20;;;;;;4971089;28;20207;-61
2021/05/08 09:18:00;;;;;;;5.97;2.23;;;12.90;49.60;;;;;;4965533;28;20919;-59
2021/05/08 09:20:40;;;;;;;5.10;2.23;;;12.90;49.50;;;;;;4969122;28;20471;-59
2021/05/08 09:23:30;;;;;;;3.87;1.67;;;12.90;50.50;;;;;;4981309;28;20883;-59
2021/05/08 09:26:01;;;;;;;2.73;1.87;;;13.10;50.30;;;;;;4980690;28;21215;-61
2021/05/08 09:28:29;;;;;;;2.97;2.20;;;13.10;50.50;;;;;;4976192;28;20456;-59
2021/05/08 09:30:55;;;;;;;2.53;1.80;;;13.30;50.00;;;;;;4972301;28;20527;-57
2021/05/08 09:33:23;;;;;;;2.30;2.07;;;13.40;49.70;;;;;;4970037;28;21471;-59
2021/05/08 09:36:11;;;;;;;7.87;2.27;;;13.50;50.10;;;;;;4978166;28;21827;-60
2021/05/08 09:38:39;;;;;;;6.60;2.63;;;13.70;50.20;;;;;;4983096;28;20439;-59
2021/05/08 09:41:07;;;;;;;2.77;2.40;;;13.70;49.20;;;;;;4975986;28;20475;-61
2021/05/08 09:43:34;;;;;;;2.60;2.37;;;13.80;48.90;;;;;;4975479;28;20468;-59
2021/05/08 09:45:59;;;;;;;5.87;2.43;;;13.80;48.90;;;;;;4977441;28;20459;-59
2021/05/08 09:48:31;;;;;;;6.20;3.00;;;13.70;48.10;;;;;;4983525;28;20781;-60
2021/05/08 09:51:25;;;;;;;3.07;2.77;;;13.70;48.80;;;;;;4988475;28;20178;-60
2021/05/08 09:54:10;;;;;;;8.80;2.73;;;13.70;50.10;;;;;;4979851;28;20687;-58
2021/05/08 09:56:43;;;;;;;2.80;2.60;;;13.90;51.70;;;;;;4989326;28;20466;-59
2021/05/08 09:59:33;;;;;;;8.07;2.70;;;14.10;51.50;;;;;;4989388;28;20741;-59
2021/05/08 10:02:02;;;;;;;3.37;2.80;;;14.40;51.30;;;;;;4990270;28;20416;-60
2021/05/08 10:04:36;;;;;;;12.13;2.80;;;14.50;50.30;;;;;;4997294;28;20706;-60
2021/05/08 10:07:05;;;;;;;3.53;3.23;;;14.60;50.10;;;;;;4983235;28;20554;-60
2021/05/08 10:09:31;;;;;;;5.83;3.40;;;14.70;50.50;;;;;;4981002;28;20411;-59
2021/05/08 10:12:23;;;;;;;3.20;2.80;;;14.80;49.80;;;;;;4991375;28;20428;-60
2021/05/08 10:14:51;;;;;;;11.03;3.10;;;15.00;49.10;;;;;;4991644;28;20264;-60
2021/05/08 10:17:21;;;;;;;4.73;2.90;;;14.90;48.20;;;;;;4986879;28;21035;-60
2021/05/08 10:19:49;;;;;;;3.93;3.10;;;14.90;48.70;;;;;;4977465;28;20437;-59
2021/05/08 10:22:17;;;;;;;3.40;2.90;;;14.90;48.60;;;;;;4990416;28;20463;-60
2021/05/08 10:24:47;;;;;;;5.10;3.00;;;14.90;48.00;;;;;;4981165;28;20429;-60
2021/05/08 10:27:14;;;;;;;3.77;3.30;;;14.80;48.00;;;;;;4973894;28;20884;-59
2021/05/08 10:29:42;;;;;;;3.03;2.53;;;14.70;48.60;;;;;;4987221;28;20462;-59
2021/05/08 10:32:14;;;;;;;5.70;3.47;;;14.60;48.40;;;;;;5001164;28;20446;-59
2021/05/08 10:35:03;;;;;;;3.10;2.60;;;14.50;48.70;;;;;;4990849;28;20822;-60
2021/05/08 10:37:30;;;;;;;2.67;2.47;;;14.40;49.50;;;;;;4982024;28;20433;-60
2021/05/08 10:40:04;;;;;;;3.93;2.20;;;14.40;50.00;;;;;;4997586;28;20435;-59
2021/05/08 10:42:38;;;;;;;2.67;2.47;;;14.40;49.80;;;;;;4995967;28;20455;-62
2021/05/08 10:45:15;;;;;;;4.17;2.50;;;14.30;49.30;;;;;;5007485;28;20645;-59
2021/05/08 10:47:53;;;;;;;4.30;2.17;;;14.30;48.40;;;;;;5047287;28;20587;-62
2021/05/08 10:50:22;;;;;;;2.83;2.47;;;14.20;48.70;;;;;;5043815;28;20417;-62
2021/05/08 10:53:05;;;;;;;2.73;2.47;;;14.20;48.30;;;;;;5044040;28;20425;-61
2021/05/08 10:55:48;;;;;;;3.13;2.20;;;14.40;49.00;;;;;;5038431;28;20444;-61
2021/05/08 10:58:14;;;;;;;4.57;2.33;;;14.60;49.60;;;;;;5040220;28;20926;-61
2021/05/08 11:00:50;;;;;;;2.27;2.07;;;14.80;46.30;;;;;;5046704;28;20429;-63
2021/05/08 11:03:19;;;;;;;3.67;2.40;;;14.90;48.10;;;;;;5040098;28;20177;-62
2021/05/08 11:06:14;;;;;;;5.60;2.70;;;14.90;47.20;;;;;;5049404;28;20444;-61
2021/05/08 11:08:41;;;;;;;6.17;2.70;;;15.00;48.20;;;;;;5045121;28;20425;-63
2021/05/08 11:11:12;;;;;;;3.63;2.43;;;15.10;49.30;;;;;;5044914;28;20791;-60
2021/05/08 11:13:43;;;;;;;3.90;2.40;;;15.20;48.80;;;;;;5043989;28;20457;-61
2021/05/08 11:16:22;;;;;;;2.53;2.33;;;15.40;48.70;;;;;;5042870;28;20461;-61
2021/05/08 11:18:50;;;;;;;2.67;2.47;;;15.50;48.80;;;;;;5044831;28;20426;-60
2021/05/08 11:21:18;;;;;;;2.00;1.80;;;15.60;48.00;;;;;;5044708;28;20425;-60
2021/05/08 11:23:44;;;;;;;5.10;2.10;;;15.60;48.90;;;;;;5037102;28;20460;-60
2021/05/08 11:26:23;;;;;;;3.90;2.40;;;15.60;48.00;;;;;;5040743;28;20962;-61
2021/05/08 11:29:11;;;;;;;3.50;2.30;;;15.50;47.90;;;;;;5041605;28;20410;-61
2021/05/08 11:31:39;;;;;;;2.40;2.17;;;15.50;46.60;;;;;;5045063;28;20437;-61
2021/05/08 11:34:31;;;;;;;2.60;2.40;;;15.50;47.90;;;;;;5046317;28;20926;-61
2021/05/08 11:36:57;;;;;;;2.50;2.30;;;15.60;47.40;;;;;;5044434;28;20465;-60
2021/05/08 11:39:27;;;;;;;3.90;2.20;;;15.80;47.80;;;;;;5032131;28;20437;-62
2021/05/08 11:41:58;;;;;;;2.37;2.10;;;15.90;45.60;;;;;;5038563;28;20852;-61
2021/05/08 11:44:37;;;;;;;3.90;2.03;;;15.90;46.60;;;;;;5048337;28;20422;-60
2021/05/08 11:47:27;;;;;;;6.20;2.40;;;16.00;47.90;;;;;;5047298;28;20492;-61
2021/05/08 11:49:58;;;;;;;3.73;2.63;;;16.20;47.70;;;;;;5047273;28;20438;-60
2021/05/08 11:52:34;;;;;;;3.50;2.30;;;16.30;46.80;;;;;;5046117;28;20782;-61
2021/05/08 11:55:01;;;;;;;2.60;1.80;;;16.30;46.20;;;;;;5037014;28;20492;-61
2021/05/08 11:57:27;;;;;;;2.90;2.20;;;16.20;46.20;;;;;;5027325;28;20461;-60
2021/05/08 11:59:53;;;;;;;2.47;2.27;;;16.20;46.10;;;;;;5025627;28;20795;-61
2021/05/08 12:02:23;;;;;;;2.20;1.90;;;16.10;46.70;;;;;;5029780;28;20168;-60
2021/05/08 12:04:57;;;;;;;3.17;2.50;;;16.40;47.60;;;;;;5031050;28;20633;-61
2021/05/08 12:07:32;;;;;;;5.00;2.67;;;16.80;47.90;;;;;;5019409;28;20423;-61
2021/05/08 12:10:15;;;;;;;2.07;1.90;;;17.10;47.10;;;;;;5028155;28;20472;-61
2021/05/08 12:13:10;;;;;;;6.03;2.90;;;17.30;45.20;;;;;;5022992;28;20410;-60
2021/05/08 12:15:39;;;;;;;3.90;2.20;;;17.20;45.50;;;;;;5011966;28;20517;-61
2021/05/08 12:18:10;;;;;;;4.20;2.20;;;17.20;46.10;;;;;;5031827;28;20430;-61
2021/05/08 12:20:40;;;;;;;2.53;2.33;;;17.30;45.60;;;;;;5030269;28;20430;-61
2021/05/08 12:23:14;;;;;;;2.83;1.77;;;17.70;45.20;;;;;;5025919;28;20509;-61
2021/05/08 12:25:40;;;;;;;2.60;2.10;;;18.10;45.30;;;;;;5027955;28;20476;-61
2021/05/08 12:28:19;;;;;;;2.80;2.10;;;18.10;42.80;;;;;;5028940;28;20935;-61
2021/05/08 12:30:50;;;;;;;2.33;2.13;;;18.20;43.20;;;;;;5031315;28;20857;-62
2021/05/08 12:33:21;;;;;;;2.07;1.90;;;18.00;43.30;;;;;;5020367;28;20525;-61
2021/05/08 12:35:48;;;;;;;2.13;1.63;;;17.80;43.30;;;;;;5034207;28;20969;-61
2021/05/08 12:38:16;;;;;;;4.50;2.20;;;17.80;44.50;;;;;;5029323;28;20536;-61
2021/05/08 12:40:42;;;;;;;2.23;2.10;;;17.70;45.00;;;;;;5026756;28;20528;-62
2021/05/08 12:43:08;;;;;;;1.80;1.70;;;17.80;45.50;;;;;;5029722;28;20464;-62
2021/05/08 12:45:34;;;;;;;3.43;1.87;;;17.80;44.20;;;;;;5027996;28;20447;-63
2021/05/08 12:47:59;;;;;;;4.87;2.10;;;17.80;44.20;;;;;;5030472;28;20176;-61
2021/05/08 12:50:34;;;;;;;2.30;2.10;;;17.80;44.20;;;;;;5027718;28;20246;-59
2021/05/08 12:53:05;;;;;;;5.53;2.50;;;17.80;44.70;;;;;;5024020;28;21292;-62
2021/05/08 12:55:34;;;;;;;2.03;1.83;;;18.10;45.20;;;;;;5012440;28;20450;-59
2021/05/08 12:58:06;;;;;;;2.67;1.70;;;18.60;45.60;;;;;;5013113;28;20443;-60